Gloster, Louisiana
Current Conditions -  °F | °C
As of 5:56 AM on Saturday 01 Nov 2014 (Local Time) from KSHV Reporting Station
Clear Clear  
Wind Chill: 34°   Ceiling: Unl
Heat Index: 41°   Visibility: 10mi
Dew Point: 27°   Wind: 12mph
Humidity: 57%   Direction: 40°NE
Pressure: 30.39"   Gusts: NA
Location:  32.19°N, 93.81°W
Report Text: KSHV 011056Z 04010KT 10SM CLR 05/M03 A3039 RMK AO2 SLP288 T00501028
Loading
Personal Weather Stations






























Interactive Weather Map
Tropical Storm Tracking
New forecast layout! Learn more

10-Day Weather Forecast

Advertisements
Track Severe Weather on mobile